Nearby METAR Reports

 

CYVR - Vancouver Intl A, British Columbia, Canada
Distance from station: WSW 19km
Updated: Wed, 11-20-2019 12:38am PST
Clear
Clear
 Wind from varies
Wind: varies 4 km/h
Temperature: 2°C
Dew Point: 1°C
Humidity: 93%
Barometer: 1021.7 hPa
Clouds: Clear
Visibility: 32 km
2019/11/20 08:38 CYVR 200838Z VRB02KT 20SM SKC 02/01 A3017 RMK SLP219
CWWA - W Vancouver Auto, British Columbia, Canada
Distance from station: NW 24km
Updated: Wed, 11-20-2019 12:00am PST

 Wind from NNE
Wind: NNE 6 km/h
Temperature: 5°C
Dew Point: 2°C
Humidity: 81%
2019/11/20 08:00 CWWA 200800Z AUTO 02003KT 05/02 RMK AO1 SLP213 T00460017 51017
 
CWWK - White Rock Autob, British Columbia, Canada
Distance from station: SSE 24km
Updated: Wed, 11-20-2019 12:00am PST

 Wind from N
Wind: N 4 km/h
Temperature: 5°C
Dew Point: 4°C
Humidity: 93%
2019/11/20 08:00 CWWK 200800Z AUTO 01002KT 05/04 RMK AO1 SLP218 T00520042 51020
CWMM - P. Meadows Cs Au, British Columbia, Canada
Distance from station: E 17km
Updated: Wed, 11-20-2019 12:00am PST

 Wind from calm
Wind: Calm
Temperature: 1°C
Dew Point: 1°C
Humidity: 100%
2019/11/20 08:00 CWMM 200800Z AUTO 00000KT 01/01 RMK AO1 SLP219 T00120008 51022
 
CWVF - Sand Heads (ls), British Columbia, Canada
Distance from station: WSW 30km
Updated: Wed, 11-20-2019 12:00am PST

 Wind from NE
Wind: NE 7 km/h
Temperature: 8°C
Wind Chill: 7°C
Dew Point: 5°C
Humidity: 82%
2019/11/20 08:00 CWVF 200800Z AUTO 05004KT 08/05 RMK AO1 T00760053